Time;durP1;ratioP1;P1;durP2;ratioP2;P2;SDS_P1;SDS_P2;PMS_P1;PMS_P2;Temp;Humidity;BMP_temperature;BMP_pressure;BME280_temperature;BME280_humidity;BME280_pressure;Samples;Min_cycle;Max_cycle;Signal;HPM_P1;HPM_P2
2021/10/20 00:02:10;;;;;;;4.25;3.85;;;15.70;99.90;;;;;;5086618;28;20024;-43
2021/10/20 00:04:36;;;;;;;5.25;4.40;;;15.60;99.90;;;;;;5087179;28;20494;-44
2021/10/20 00:07:01;;;;;;;5.40;4.40;;;15.60;99.90;;;;;;5086314;28;20036;-44
2021/10/20 00:09:27;;;;;;;4.65;3.97;;;15.60;99.90;;;;;;5086672;28;20020;-43
2021/10/20 00:11:53;;;;;;;4.40;4.00;;;15.60;99.90;;;;;;5087125;28;20024;-43
2021/10/20 00:14:18;;;;;;;5.72;4.40;;;15.50;99.90;;;;;;5085831;28;20035;-42
2021/10/20 00:16:43;;;;;;;4.18;3.78;;;15.50;99.90;;;;;;5087469;28;20391;-44
2021/10/20 00:19:09;;;;;;;4.20;3.80;;;15.50;99.90;;;;;;5086007;28;20040;-43
2021/10/20 00:21:35;;;;;;;4.70;4.30;;;15.50;99.90;;;;;;5086544;28;20020;-42
2021/10/20 00:24:01;;;;;;;4.72;4.10;;;15.50;99.90;;;;;;5086984;28;20456;-45
2021/10/20 00:26:27;;;;;;;5.03;3.65;;;15.50;99.90;;;;;;5085994;28;20032;-44
2021/10/20 00:28:53;;;;;;;5.13;4.63;;;15.50;99.90;;;;;;5086727;28;20039;-42
2021/10/20 00:31:18;;;;;;;4.85;3.75;;;15.50;99.90;;;;;;5086676;28;20032;-44
2021/10/20 00:33:44;;;;;;;4.45;4.05;;;15.50;99.90;;;;;;5086438;28;20636;-42
2021/10/20 00:36:10;;;;;;;5.47;3.90;;;15.50;99.90;;;;;;5086170;28;20118;-42
2021/10/20 00:38:36;;;;;;;4.90;3.85;;;15.40;99.90;;;;;;5086768;28;20016;-43
2021/10/20 00:41:01;;;;;;;4.90;4.00;;;15.40;99.90;;;;;;5085902;28;20471;-43
2021/10/20 00:43:27;;;;;;;4.80;3.92;;;15.40;99.90;;;;;;5086666;28;20463;-43
2021/10/20 00:45:53;;;;;;;4.47;3.65;;;15.40;99.90;;;;;;5086495;28;20107;-43
2021/10/20 00:48:19;;;;;;;4.47;3.90;;;15.40;99.90;;;;;;5085923;28;20031;-44
2021/10/20 00:50:44;;;;;;;4.30;3.90;;;15.40;99.90;;;;;;5086401;28;20028;-44
2021/10/20 00:53:10;;;;;;;4.13;3.72;;;15.40;99.90;;;;;;5085919;28;20159;-44
2021/10/20 00:55:36;;;;;;;5.38;4.32;;;15.40;99.90;;;;;;5085545;28;20033;-43
2021/10/20 00:58:03;;;;;;;4.50;3.92;;;15.40;99.90;;;;;;5086523;28;20600;-44
2021/10/20 01:00:29;;;;;;;4.85;4.20;;;15.40;99.90;;;;;;5086859;28;20038;-43
2021/10/20 01:02:55;;;;;;;5.82;4.40;;;15.40;99.90;;;;;;5086273;28;20024;-44
2021/10/20 01:05:21;;;;;;;4.03;3.63;;;15.50;99.90;;;;;;5086126;28;20020;-44
2021/10/20 01:07:46;;;;;;;5.72;3.45;;;15.50;99.90;;;;;;5087017;28;20023;-42
2021/10/20 01:10:15;;;;;;;5.20;3.67;;;15.50;99.90;;;;;;5086813;28;20028;-43
2021/10/20 01:12:42;;;;;;;6.75;3.65;;;15.40;99.90;;;;;;5090462;28;20429;-43
2021/10/20 01:15:14;;;;;;;3.83;3.45;;;15.50;99.90;;;;;;5089685;28;20093;-43
2021/10/20 01:17:40;;;;;;;5.57;3.78;;;15.50;99.90;;;;;;5088483;28;20088;-42
2021/10/20 01:20:07;;;;;;;4.07;3.67;;;15.50;99.90;;;;;;5089670;28;20431;-43
2021/10/20 01:22:33;;;;;;;3.05;2.83;;;15.50;99.90;;;;;;5089388;28;20024;-44
2021/10/20 01:25:00;;;;;;;3.85;3.45;;;15.50;99.90;;;;;;5090214;28;20846;-44
2021/10/20 01:27:27;;;;;;;3.70;3.35;;;15.60;99.90;;;;;;5089062;28;20475;-43
2021/10/20 01:29:52;;;;;;;5.55;3.92;;;15.60;99.90;;;;;;5089140;28;20475;-44
2021/10/20 01:32:18;;;;;;;4.65;4.25;;;15.60;99.90;;;;;;5089519;28;20016;-42
2021/10/20 01:34:44;;;;;;;5.80;3.30;;;15.60;99.90;;;;;;5090215;28;20903;-43
2021/10/20 01:37:10;;;;;;;4.53;3.85;;;15.70;99.90;;;;;;5088736;28;20023;-43
2021/10/20 01:39:39;;;;;;;4.82;4.05;;;15.70;99.90;;;;;;5090165;28;20028;-43
2021/10/20 01:42:04;;;;;;;4.68;4.10;;;15.70;99.90;;;;;;5089460;28;20391;-43
2021/10/20 01:44:30;;;;;;;3.90;3.60;;;15.80;99.90;;;;;;5089241;28;20028;-43
2021/10/20 01:46:56;;;;;;;4.57;3.72;;;15.90;99.90;;;;;;5089372;28;20055;-43
2021/10/20 01:49:22;;;;;;;5.25;3.92;;;15.90;99.90;;;;;;5089568;28;20013;-43
2021/10/20 01:51:48;;;;;;;5.32;4.20;;;15.90;99.90;;;;;;5088510;28;20016;-43
2021/10/20 01:54:14;;;;;;;4.50;4.10;;;16.00;99.90;;;;;;5088681;28;20068;-44
2021/10/20 01:56:40;;;;;;;4.10;3.70;;;16.00;99.90;;;;;;5089692;28;20047;-42
2021/10/20 01:59:05;;;;;;;4.68;3.63;;;16.00;99.90;;;;;;5088278;28;20012;-44
2021/10/20 02:01:31;;;;;;;4.70;3.67;;;16.00;99.90;;;;;;5089502;28;20076;-44
2021/10/20 02:03:56;;;;;;;5.07;4.15;;;15.90;99.90;;;;;;5088902;28;20399;-44
2021/10/20 02:06:24;;;;;;;7.22;3.70;;;16.00;99.90;;;;;;5088571;28;20017;-44
2021/10/20 02:08:50;;;;;;;4.78;3.72;;;15.90;99.90;;;;;;5089341;28;20036;-43
2021/10/20 02:11:19;;;;;;;5.28;3.88;;;16.00;99.90;;;;;;5089151;28;20410;-42
2021/10/20 02:13:46;;;;;;;5.28;3.60;;;16.00;99.90;;;;;;5088585;28;20107;-43
2021/10/20 02:16:11;;;;;;;5.70;3.75;;;16.00;99.90;;;;;;5088141;28;20039;-43
2021/10/20 02:18:37;;;;;;;4.38;3.45;;;16.00;99.90;;;;;;5088696;28;20023;-42
2021/10/20 02:21:03;;;;;;;4.15;3.60;;;16.00;99.90;;;;;;5088221;28;20021;-43
2021/10/20 02:23:32;;;;;;;4.43;3.72;;;15.90;99.90;;;;;;5088191;28;20012;-44
2021/10/20 02:25:58;;;;;;;3.75;3.45;;;15.90;99.90;;;;;;5088262;28;20032;-44
2021/10/20 02:28:23;;;;;;;3.17;2.88;;;15.90;99.90;;;;;;5088585;28;20031;-44
2021/10/20 02:30:49;;;;;;;4.25;3.20;;;15.90;99.90;;;;;;5088911;28;20028;-42
2021/10/20 02:33:14;;;;;;;6.15;3.72;;;15.90;99.90;;;;;;5087929;28;20464;-44
2021/10/20 02:35:41;;;;;;;6.65;3.80;;;15.90;99.90;;;;;;5088720;28;20040;-43
2021/10/20 02:38:06;;;;;;;3.67;3.38;;;15.80;99.90;;;;;;5088278;28;20065;-43
2021/10/20 02:40:32;;;;;;;4.65;3.90;;;15.80;99.90;;;;;;5087786;28;20024;-43
2021/10/20 02:42:57;;;;;;;3.47;3.17;;;15.80;99.90;;;;;;5088469;28;20016;-44
2021/10/20 02:45:23;;;;;;;6.00;3.80;;;15.80;99.90;;;;;;5088264;28;20024;-43
2021/10/20 02:47:48;;;;;;;4.30;3.63;;;15.80;99.90;;;;;;5088148;28;20024;-43
2021/10/20 02:50:14;;;;;;;8.98;4.20;;;15.80;99.90;;;;;;5087707;28;20032;-42
2021/10/20 02:52:40;;;;;;;4.00;3.42;;;15.80;99.90;;;;;;5088195;28;20081;-42
2021/10/20 02:55:07;;;;;;;4.88;3.55;;;15.80;99.90;;;;;;5086198;28;20076;-42
2021/10/20 02:57:33;;;;;;;5.35;3.80;;;15.70;99.90;;;;;;5088572;28;20024;-43
2021/10/20 02:59:58;;;;;;;4.57;3.88;;;15.70;99.90;;;;;;5087886;28;20480;-43
2021/10/20 03:02:25;;;;;;;4.18;3.78;;;15.70;99.90;;;;;;5087302;28;20050;-44
2021/10/20 03:04:51;;;;;;;3.55;2.97;;;15.70;99.90;;;;;;5088068;28;20020;-44
2021/10/20 03:07:17;;;;;;;4.20;3.75;;;15.70;99.90;;;;;;5087830;28;20027;-45
2021/10/20 03:09:42;;;;;;;3.70;3.40;;;15.70;99.90;;;;;;5087770;28;20020;-44
2021/10/20 03:12:08;;;;;;;3.50;3.20;;;15.70;99.90;;;;;;5087715;28;20091;-45
2021/10/20 03:14:33;;;;;;;4.18;3.78;;;15.70;99.90;;;;;;5087762;28;20026;-44
2021/10/20 03:16:59;;;;;;;3.90;3.60;;;15.60;99.90;;;;;;5087465;28;20034;-43
2021/10/20 03:19:24;;;;;;;3.80;3.50;;;15.60;99.90;;;;;;5087445;28;20024;-43
2021/10/20 03:21:50;;;;;;;5.47;3.95;;;15.60;99.90;;;;;;5087873;28;20483;-43
2021/10/20 03:24:15;;;;;;;5.75;3.92;;;15.60;99.90;;;;;;5087177;28;20038;-44
2021/10/20 03:26:41;;;;;;;4.40;3.65;;;15.60;99.90;;;;;;5087662;28;20026;-44
2021/10/20 03:29:06;;;;;;;6.15;3.92;;;15.70;99.90;;;;;;5086900;28;20028;-44
2021/10/20 03:31:32;;;;;;;4.45;4.05;;;15.60;99.90;;;;;;5087464;28;20023;-43
2021/10/20 03:33:58;;;;;;;5.95;4.13;;;15.70;99.90;;;;;;5087797;28;20426;-43
2021/10/20 03:36:23;;;;;;;5.50;3.97;;;15.70;99.90;;;;;;5086785;28;20566;-44
2021/10/20 03:38:49;;;;;;;9.10;4.38;;;15.70;99.90;;;;;;5087486;28;20028;-43
2021/10/20 03:41:14;;;;;;;6.18;4.25;;;15.70;99.90;;;;;;5086920;28;20028;-43
2021/10/20 03:43:40;;;;;;;4.60;3.90;;;15.70;99.90;;;;;;5086992;28;20035;-43
2021/10/20 03:46:06;;;;;;;5.05;4.20;;;15.70;99.90;;;;;;5086768;28;20012;-43
2021/10/20 03:48:32;;;;;;;4.35;3.70;;;15.70;99.90;;;;;;5087668;28;20035;-42
2021/10/20 03:50:58;;;;;;;6.90;4.75;;;15.70;99.90;;;;;;5086646;28;20016;-45
2021/10/20 03:53:23;;;;;;;5.72;4.70;;;15.70;99.90;;;;;;5087046;28;20044;-42
2021/10/20 03:55:49;;;;;;;4.93;4.30;;;15.70;99.90;;;;;;5087061;28;20083;-43
2021/10/20 03:58:14;;;;;;;4.90;4.40;;;15.70;99.90;;;;;;5086450;28;20405;-44
2021/10/20 04:00:40;;;;;;;5.95;5.18;;;15.80;99.90;;;;;;5087465;28;20738;-43
2021/10/20 04:03:05;;;;;;;5.18;4.57;;;15.70;99.90;;;;;;5086895;28;20044;-43
2021/10/20 04:05:40;;;;;;;5.88;4.80;;;15.80;99.90;;;;;;5086860;28;20028;-42
2021/10/20 04:08:06;;;;;;;6.30;4.60;;;15.80;99.90;;;;;;5086310;28;20123;-43
2021/10/20 04:10:31;;;;;;;5.68;4.43;;;15.80;99.90;;;;;;5087180;28;20119;-43
2021/10/20 04:12:57;;;;;;;5.00;4.50;;;15.80;99.90;;;;;;5086425;28;20022;-43
2021/10/20 04:15:26;;;;;;;6.97;4.22;;;15.80;99.90;;;;;;5086836;28;20040;-43
2021/10/20 04:17:52;;;;;;;6.57;4.93;;;15.80;99.90;;;;;;5086634;28;20028;-42
2021/10/20 04:20:19;;;;;;;5.22;4.72;;;15.80;99.90;;;;;;5086626;28;20024;-43
2021/10/20 04:22:46;;;;;;;7.18;4.35;;;15.80;99.90;;;;;;5086696;28;20530;-43
2021/10/20 04:25:12;;;;;;;5.50;4.30;;;15.80;99.90;;;;;;5086482;28;20345;-43
2021/10/20 04:27:39;;;;;;;4.93;4.30;;;15.80;99.90;;;;;;5086664;28;20046;-42
2021/10/20 04:30:07;;;;;;;4.80;4.35;;;15.80;99.90;;;;;;5086754;28;20070;-44
2021/10/20 04:32:33;;;;;;;7.57;4.63;;;15.80;99.90;;;;;;5085576;28;20028;-43
2021/10/20 04:35:00;;;;;;;5.25;4.68;;;15.70;99.90;;;;;;5086481;28;20031;-42
2021/10/20 04:37:26;;;;;;;9.50;3.92;;;15.70;99.90;;;;;;5086624;28;20028;-44
2021/10/20 04:39:53;;;;;;;4.68;4.22;;;15.80;99.90;;;;;;5085901;28;20417;-44
2021/10/20 04:42:20;;;;;;;4.95;4.03;;;15.80;99.90;;;;;;5086245;28;20031;-42
2021/10/20 04:44:46;;;;;;;4.30;3.90;;;15.80;99.90;;;;;;5087655;28;20027;-43
2021/10/20 04:47:12;;;;;;;5.50;3.92;;;15.80;99.90;;;;;;5090231;28;20024;-43
2021/10/20 04:49:38;;;;;;;4.28;3.88;;;15.90;99.90;;;;;;5090533;28;20072;-44
2021/10/20 04:52:04;;;;;;;4.78;4.18;;;15.90;99.90;;;;;;5091358;28;20055;-43
2021/10/20 04:54:32;;;;;;;5.57;4.13;;;15.90;99.90;;;;;;5089837;28;20058;-43
2021/10/20 04:56:58;;;;;;;5.00;3.70;;;16.00;99.90;;;;;;5090323;28;20048;-42
2021/10/20 04:59:24;;;;;;;5.72;4.72;;;16.00;99.90;;;;;;5090711;28;20116;-44
2021/10/20 05:01:49;;;;;;;5.13;4.20;;;16.00;99.90;;;;;;5090040;28;20051;-43
2021/10/20 05:04:15;;;;;;;5.97;4.53;;;16.10;99.90;;;;;;5089797;28;20047;-44
2021/10/20 05:06:41;;;;;;;5.65;4.57;;;16.10;99.90;;;;;;5090546;28;20028;-44
2021/10/20 05:09:06;;;;;;;8.20;6.75;;;16.20;99.90;;;;;;5089164;28;20016;-43
2021/10/20 05:11:32;;;;;;;5.97;5.40;;;16.20;99.90;;;;;;5090702;28;20479;-43
2021/10/20 05:13:58;;;;;;;7.03;5.18;;;16.20;99.90;;;;;;5090032;28;20016;-43
2021/10/20 05:16:23;;;;;;;6.80;5.85;;;16.10;99.90;;;;;;5090090;28;20358;-44
2021/10/20 05:18:49;;;;;;;5.05;4.20;;;16.10;99.90;;;;;;5090774;28;20024;-43
2021/10/20 05:21:17;;;;;;;7.78;5.53;;;16.10;99.90;;;;;;5089721;28;20020;-42
2021/10/20 05:23:43;;;;;;;5.38;4.88;;;16.10;99.90;;;;;;5090669;28;20020;-43
2021/10/20 05:26:08;;;;;;;6.50;4.85;;;16.00;99.90;;;;;;5090649;28;20112;-42
2021/10/20 05:28:34;;;;;;;6.13;5.35;;;16.00;99.90;;;;;;5091189;28;20369;-44
2021/10/20 05:31:00;;;;;;;5.93;4.78;;;15.90;99.90;;;;;;5090506;28;20015;-43
2021/10/20 05:33:25;;;;;;;6.80;4.80;;;15.90;99.90;;;;;;5090755;28;20410;-43
2021/10/20 05:35:51;;;;;;;5.60;5.00;;;15.90;99.90;;;;;;5090067;28;20040;-43
2021/10/20 05:38:16;;;;;;;5.05;4.55;;;15.80;99.90;;;;;;5091255;28;20024;-43
2021/10/20 05:40:42;;;;;;;5.07;4.57;;;15.80;99.90;;;;;;5092684;28;20673;-43
2021/10/20 05:43:10;;;;;;;6.40;5.05;;;15.80;99.90;;;;;;5090917;28;20097;-43
2021/10/20 05:45:36;;;;;;;7.03;5.13;;;15.80;99.90;;;;;;5087595;28;20023;-43
2021/10/20 05:48:01;;;;;;;4.95;4.43;;;15.80;99.90;;;;;;5088398;28;20027;-44
2021/10/20 05:50:27;;;;;;;6.53;5.38;;;15.80;99.90;;;;;;5087846;28;20024;-42
2021/10/20 05:52:52;;;;;;;5.30;4.80;;;15.80;99.90;;;;;;5088877;28;20050;-43
2021/10/20 05:55:18;;;;;;;6.10;4.78;;;15.80;99.90;;;;;;5089302;28;20063;-43
2021/10/20 05:57:43;;;;;;;5.80;5.03;;;15.80;99.90;;;;;;5084522;28;20491;-43
2021/10/20 06:00:11;;;;;;;6.72;5.68;;;15.80;99.90;;;;;;5088056;28;20016;-43
2021/10/20 06:02:38;;;;;;;7.22;6.00;;;15.80;99.90;;;;;;5088461;28;20073;-44
2021/10/20 06:05:04;;;;;;;6.70;5.60;;;15.80;99.90;;;;;;5087824;28;20145;-44
2021/10/20 06:07:30;;;;;;;6.68;5.20;;;15.80;99.90;;;;;;5087745;28;20074;-42
2021/10/20 06:09:56;;;;;;;5.40;4.57;;;15.90;99.90;;;;;;5088252;28;20464;-43
2021/10/20 06:12:30;;;;;;;6.70;4.88;;;15.90;99.90;;;;;;5087561;28;20072;-43
2021/10/20 06:14:56;;;;;;;5.05;4.47;;;16.00;99.90;;;;;;5088623;28;20025;-43
2021/10/20 06:17:21;;;;;;;7.22;5.15;;;16.00;99.90;;;;;;5087738;28;20085;-44
2021/10/20 06:19:48;;;;;;;5.20;4.53;;;16.10;99.90;;;;;;5087696;28;20495;-46
2021/10/20 06:22:20;;;;;;;7.18;4.85;;;16.10;99.90;;;;;;5087480;28;20109;-43
2021/10/20 06:24:46;;;;;;;4.63;4.22;;;16.10;99.90;;;;;;5089092;28;20024;-43
2021/10/20 06:27:11;;;;;;;4.43;4.03;;;16.10;99.90;;;;;;5088203;28;20085;-45
2021/10/20 06:29:37;;;;;;;4.97;4.47;;;16.20;99.90;;;;;;5088849;28;20017;-42
2021/10/20 06:32:02;;;;;;;6.90;4.85;;;16.20;99.90;;;;;;5087815;28;20491;-44
2021/10/20 06:34:28;;;;;;;5.70;4.78;;;16.20;99.90;;;;;;5088493;28;20016;-43
2021/10/20 06:36:53;;;;;;;5.03;4.28;;;16.20;99.90;;;;;;5088489;28;20524;-43
2021/10/20 06:39:24;;;;;;;7.95;4.80;;;16.30;99.90;;;;;;5088138;28;20060;-43
2021/10/20 06:41:50;;;;;;;6.00;5.07;;;16.20;99.90;;;;;;5088959;28;20032;-44
2021/10/20 06:44:16;;;;;;;6.05;4.80;;;16.30;99.90;;;;;;5088603;28;20053;-42
2021/10/20 06:46:42;;;;;;;5.55;4.93;;;16.30;99.90;;;;;;5088119;28;20066;-43
2021/10/20 06:49:08;;;;;;;5.50;5.00;;;16.30;99.90;;;;;;5088302;28;20020;-42
2021/10/20 06:51:33;;;;;;;5.82;5.20;;;16.30;99.90;;;;;;5089515;28;20111;-43
2021/10/20 06:53:59;;;;;;;6.57;4.95;;;16.30;99.90;;;;;;5088040;28;20493;-43
2021/10/20 06:56:25;;;;;;;5.38;4.63;;;16.30;99.90;;;;;;5089410;28;20043;-43
2021/10/20 06:58:53;;;;;;;6.20;4.75;;;16.40;99.90;;;;;;5088487;28;20066;-43
2021/10/20 07:01:19;;;;;;;7.00;5.22;;;16.40;99.90;;;;;;5087996;28;20929;-43
2021/10/20 07:03:44;;;;;;;5.85;5.20;;;16.40;99.90;;;;;;5087161;28;20036;-44
2021/10/20 07:06:16;;;;;;;5.55;4.55;;;16.30;99.90;;;;;;5085163;28;20365;-43
2021/10/20 07:08:42;;;;;;;6.53;5.22;;;16.40;99.90;;;;;;5087344;28;20433;-44
2021/10/20 07:11:07;;;;;;;7.10;4.80;;;16.40;99.90;;;;;;5087308;28;20475;-43
2021/10/20 07:13:36;;;;;;;7.43;4.60;;;16.40;99.90;;;;;;5088560;28;20042;-43
2021/10/20 07:16:01;;;;;;;4.97;4.18;;;16.40;99.90;;;;;;5087352;28;20044;-43
2021/10/20 07:18:29;;;;;;;6.00;5.22;;;16.40;99.90;;;;;;5087979;28;20027;-45
2021/10/20 07:20:54;;;;;;;5.63;4.75;;;16.40;99.90;;;;;;5087247;28;20461;-43
2021/10/20 07:23:22;;;;;;;6.50;4.68;;;16.40;99.90;;;;;;5087422;28;20016;-44
2021/10/20 07:25:48;;;;;;;5.53;5.03;;;16.40;99.90;;;;;;5088284;28;20073;-43
2021/10/20 07:28:13;;;;;;;6.40;4.90;;;16.50;99.90;;;;;;5086898;28;20020;-45
2021/10/20 07:30:39;;;;;;;4.95;4.40;;;16.50;99.90;;;;;;5088069;28;20476;-43
2021/10/20 07:33:05;;;;;;;4.78;4.22;;;16.60;99.90;;;;;;5087149;28;21103;-44
2021/10/20 07:35:31;;;;;;;4.65;4.10;;;16.60;99.90;;;;;;5087076;28;20032;-43
2021/10/20 07:37:56;;;;;;;5.22;4.72;;;16.70;99.90;;;;;;5087762;28;20027;-43
2021/10/20 07:40:22;;;;;;;5.38;4.88;;;16.70;99.90;;;;;;5087293;28;20130;-43
2021/10/20 07:42:48;;;;;;;5.38;4.88;;;16.60;99.90;;;;;;5086882;28;20031;-45
2021/10/20 07:45:16;;;;;;;7.35;5.22;;;16.60;99.90;;;;;;5086710;28;20020;-44
2021/10/20 07:47:43;;;;;;;5.80;4.80;;;16.60;99.90;;;;;;5087279;28;20024;-43
2021/10/20 07:50:09;;;;;;;7.55;4.97;;;16.60;99.90;;;;;;5086162;28;20062;-44
2021/10/20 07:52:34;;;;;;;5.43;4.70;;;16.60;99.90;;;;;;5086765;28;20032;-42
2021/10/20 07:55:01;;;;;;;6.50;4.60;;;16.60;99.90;;;;;;5087036;28;20042;-45
2021/10/20 07:57:29;;;;;;;5.20;4.18;;;16.60;99.90;;;;;;5086868;28;20115;-43
2021/10/20 07:59:56;;;;;;;5.18;4.68;;;16.60;99.90;;;;;;5086499;28;20044;-43
2021/10/20 08:02:22;;;;;;;8.90;5.25;;;16.60;99.90;;;;;;5087465;28;20111;-43
2021/10/20 08:04:47;;;;;;;10.32;5.88;;;16.60;99.90;;;;;;5086997;28;20495;-44
2021/10/20 08:07:14;;;;;;;5.65;5.03;;;16.60;99.90;;;;;;5087138;28;20024;-44
2021/10/20 08:09:39;;;;;;;4.68;4.20;;;16.50;99.90;;;;;;5087324;28;20024;-44
2021/10/20 08:12:05;;;;;;;5.32;4.82;;;16.50;99.90;;;;;;5086341;28;20028;-43
2021/10/20 08:14:33;;;;;;;7.10;5.18;;;16.50;99.90;;;;;;5087138;28;20020;-44
2021/10/20 08:16:59;;;;;;;5.68;5.18;;;16.50;99.90;;;;;;5087076;28;20035;-43
2021/10/20 08:19:24;;;;;;;6.45;4.47;;;16.50;99.90;;;;;;5086280;28;20634;-43
2021/10/20 08:21:50;;;;;;;5.40;4.90;;;16.50;99.90;;;;;;5085527;28;20024;-44
2021/10/20 08:24:15;;;;;;;7.47;5.40;;;16.50;99.90;;;;;;5086373;28;20028;-44
2021/10/20 08:26:41;;;;;;;7.80;4.93;;;16.50;99.90;;;;;;5086644;28;20103;-43
2021/10/20 08:29:08;;;;;;;6.13;5.50;;;16.50;99.90;;;;;;5086626;28;20081;-43
2021/10/20 08:31:33;;;;;;;6.57;5.78;;;16.50;99.90;;;;;;5086245;28;20499;-42
2021/10/20 08:33:59;;;;;;;5.85;5.05;;;16.50;99.90;;;;;;5087302;28;20059;-44
2021/10/20 08:36:24;;;;;;;6.38;5.63;;;16.50;99.90;;;;;;5086623;28;20035;-44
2021/10/20 08:38:50;;;;;;;6.30;5.70;;;16.40;99.90;;;;;;5086396;28;20737;-44
2021/10/20 08:41:16;;;;;;;6.88;6.05;;;16.50;99.90;;;;;;5086821;28;20460;-43
2021/10/20 08:43:41;;;;;;;6.10;5.45;;;16.40;99.90;;;;;;5087111;28;20046;-44
2021/10/20 08:46:07;;;;;;;6.88;5.82;;;16.50;99.90;;;;;;5085844;28;20032;-43
2021/10/20 08:48:32;;;;;;;7.22;6.07;;;16.50;99.90;;;;;;5087110;28;20016;-44
2021/10/20 08:51:02;;;;;;;7.15;6.40;;;16.50;99.90;;;;;;5086618;28;20073;-44
2021/10/20 08:53:29;;;;;;;12.15;6.38;;;16.50;99.90;;;;;;5074618;28;20044;-43
2021/10/20 08:55:55;;;;;;;8.98;6.78;;;16.60;99.90;;;;;;5086876;28;20036;-43
2021/10/20 08:58:22;;;;;;;7.03;6.28;;;16.70;99.90;;;;;;5086554;28;20050;-43
2021/10/20 09:00:48;;;;;;;6.78;6.18;;;16.70;99.90;;;;;;5086024;28;20032;-42
2021/10/20 09:03:14;;;;;;;6.40;5.80;;;16.80;99.90;;;;;;5086666;28;20081;-44
2021/10/20 09:05:40;;;;;;;7.57;6.78;;;16.90;99.90;;;;;;5086669;28;20038;-44
2021/10/20 09:08:07;;;;;;;7.47;5.93;;;16.90;99.90;;;;;;5086039;28;20020;-45
2021/10/20 09:10:36;;;;;;;7.00;6.30;;;17.00;99.90;;;;;;5086906;28;20431;-43
2021/10/20 09:13:04;;;;;;;7.57;5.70;;;17.10;99.90;;;;;;5084785;28;20030;-44
2021/10/20 09:15:33;;;;;;;9.98;6.60;;;17.20;99.90;;;;;;5066353;28;20028;-46
2021/10/20 09:18:11;;;;;;;7.03;6.32;;;17.20;99.90;;;;;;5081347;28;20024;-44
2021/10/20 09:20:39;;;;;;;7.00;5.57;;;17.20;99.90;;;;;;5086601;28;20430;-43
2021/10/20 09:23:12;;;;;;;6.95;6.05;;;17.20;99.90;;;;;;5085637;28;20020;-42
2021/10/20 09:26:00;;;;;;;7.43;6.65;;;17.20;99.90;;;;;;5086314;28;20504;-43
2021/10/20 09:28:38;;;;;;;7.00;6.40;;;17.20;99.90;;;;;;5085625;28;20421;-43
2021/10/20 09:31:08;;;;;;;6.95;5.82;;;17.20;99.90;;;;;;5067341;28;20032;-43
2021/10/20 09:33:38;;;;;;;8.52;6.45;;;17.20;99.90;;;;;;5085165;28;20024;-43
2021/10/20 09:36:10;;;;;;;7.60;6.10;;;17.30;99.90;;;;;;5089295;28;20072;-42
2021/10/20 09:38:40;;;;;;;7.15;6.40;;;17.30;99.90;;;;;;5090098;28;20035;-43
2021/10/20 09:41:07;;;;;;;7.22;5.97;;;17.40;99.90;;;;;;5089281;28;20020;-43
2021/10/20 09:43:40;;;;;;;8.07;5.82;;;17.40;99.90;;;;;;5089485;28;20451;-43
2021/10/20 09:46:05;;;;;;;;;;;17.50;99.90;;;;;;5089726;28;20032;-42
2021/10/20 09:48:31;;;;;;;9.57;6.40;;;17.50;99.90;;;;;;5089797;28;19931;-44
2021/10/20 09:51:06;;;;;;;7.15;6.40;;;17.50;99.90;;;;;;5089184;28;20018;-45
2021/10/20 09:53:35;;;;;;;8.18;6.15;;;17.60;99.90;;;;;;5089199;28;20583;-44
2021/10/20 09:56:17;;;;;;;8.55;5.90;;;17.60;99.90;;;;;;5089075;28;20117;-43
2021/10/20 09:58:46;;;;;;;7.40;6.68;;;17.60;99.90;;;;;;5089505;28;20031;-43
2021/10/20 10:01:13;;;;;;;7.53;5.95;;;17.60;99.90;;;;;;5089262;28;20349;-44
2021/10/20 10:03:41;;;;;;;7.28;6.57;;;17.70;99.90;;;;;;5089005;28;20023;-44
2021/10/20 10:06:09;;;;;;;7.13;6.43;;;17.80;99.90;;;;;;5089258;28;20032;-43
2021/10/20 10:08:35;;;;;;;6.18;5.57;;;17.90;99.90;;;;;;5089374;28;20463;-42
2021/10/20 10:11:01;;;;;;;7.68;6.68;;;18.10;99.90;;;;;;5089001;28;20080;-46
2021/10/20 10:13:30;;;;;;;7.05;6.00;;;18.20;99.90;;;;;;5088961;28;20028;-43
2021/10/20 10:16:02;;;;;;;6.10;5.43;;;18.30;99.90;;;;;;5088958;28;20086;-44
2021/10/20 10:18:28;;;;;;;6.88;6.13;;;18.40;99.90;;;;;;5088973;28;20364;-44
2021/10/20 10:20:54;;;;;;;7.80;6.05;;;18.40;99.90;;;;;;5089107;28;20035;-44
2021/10/20 10:23:23;;;;;;;6.75;6.13;;;18.40;99.90;;;;;;5088625;28;20024;-43
2021/10/20 10:26:01;;;;;;;7.30;6.40;;;18.30;99.90;;;;;;5087842;28;20070;-43
2021/10/20 10:28:35;;;;;;;6.57;5.90;;;18.30;99.90;;;;;;5088325;28;20032;-43
2021/10/20 10:31:10;;;;;;;7.60;6.25;;;18.20;99.90;;;;;;5088261;28;20023;-44
2021/10/20 10:33:50;;;;;;;5.97;5.40;;;18.10;99.90;;;;;;5085926;28;20467;-43
2021/10/20 10:36:19;;;;;;;6.35;5.75;;;18.00;99.90;;;;;;5088138;28;20131;-44
2021/10/20 10:38:48;;;;;;;6.75;5.82;;;18.00;99.90;;;;;;5088774;28;20039;-44
2021/10/20 10:41:23;;;;;;;7.00;5.95;;;18.00;99.90;;;;;;5088554;28;20028;-43
2021/10/20 10:44:04;;;;;;;6.10;5.50;;;17.90;99.90;;;;;;5088014;28;20122;-43
2021/10/20 10:47:05;;;;;;;7.05;6.15;;;17.90;99.90;;;;;;5088529;28;20427;-46
2021/10/20 10:49:40;;;;;;;9.20;5.70;;;17.90;99.90;;;;;;5089077;28;20020;-45
2021/10/20 10:52:33;;;;;;;6.65;5.68;;;17.90;99.90;;;;;;5088120;28;20016;-44
2021/10/20 10:54:58;;;;;;;6.88;6.18;;;18.00;99.90;;;;;;5069727;28;20038;-44
2021/10/20 10:57:40;;;;;;;5.93;5.38;;;18.00;99.90;;;;;;5087217;28;20698;-44
2021/10/20 11:00:18;;;;;;;6.72;5.38;;;18.00;99.90;;;;;;5086109;28;20043;-44
2021/10/20 11:02:55;;;;;;;5.95;5.35;;;18.00;99.90;;;;;;5088328;28;20032;-44
2021/10/20 11:05:30;;;;;;;7.40;5.63;;;18.00;99.90;;;;;;5087524;28;20020;-45
2021/10/20 11:08:01;;;;;;;6.00;5.40;;;18.00;99.90;;;;;;5085764;28;20032;-44
2021/10/20 11:10:27;;;;;;;6.75;5.53;;;18.00;99.90;;;;;;5088747;28;20101;-44
2021/10/20 11:12:56;;;;;;;6.03;4.82;;;18.00;99.90;;;;;;5087679;28;20479;-44
2021/10/20 11:15:23;;;;;;;4.80;4.40;;;18.00;99.90;;;;;;5087740;28;20124;-44
2021/10/20 11:17:49;;;;;;;6.05;4.90;;;18.00;99.90;;;;;;5088085;28;20020;-45
2021/10/20 11:20:17;;;;;;;5.90;5.30;;;18.00;99.90;;;;;;5088084;28;20387;-44
2021/10/20 11:22:47;;;;;;;4.90;4.40;;;18.00;99.90;;;;;;5087536;28;20032;-44
2021/10/20 11:25:14;;;;;;;5.30;4.80;;;18.00;99.90;;;;;;5087295;28;20174;-43
2021/10/20 11:27:44;;;;;;;5.32;4.82;;;18.10;99.90;;;;;;5087362;28;20101;-43
2021/10/20 11:30:10;;;;;;;5.53;5.03;;;18.10;99.90;;;;;;5087569;28;20099;-44
2021/10/20 11:32:35;;;;;;;6.13;5.35;;;18.00;99.90;;;;;;5087479;28;20728;-43
2021/10/20 11:35:02;;;;;;;6.43;4.93;;;18.10;99.90;;;;;;5087209;28;20031;-44
2021/10/20 11:37:27;;;;;;;5.38;4.88;;;18.10;99.90;;;;;;5087519;28;20380;-43
2021/10/20 11:39:58;;;;;;;5.40;4.90;;;18.10;99.90;;;;;;5087386;28;20486;-43
2021/10/20 11:42:24;;;;;;;6.90;5.10;;;18.10;99.90;;;;;;5087070;28;20670;-43
2021/10/20 11:44:51;;;;;;;5.70;4.85;;;18.20;99.90;;;;;;5087948;28;20035;-44
2021/10/20 11:47:18;;;;;;;5.38;4.88;;;18.20;99.90;;;;;;5087009;28;20013;-45
2021/10/20 11:49:46;;;;;;;5.82;5.25;;;18.20;99.90;;;;;;5087070;28;20028;-43
2021/10/20 11:52:13;;;;;;;5.03;4.53;;;18.20;99.90;;;;;;5086133;28;20047;-43
2021/10/20 11:54:39;;;;;;;7.20;5.97;;;18.20;99.90;;;;;;5085912;28;20052;-44
2021/10/20 11:57:08;;;;;;;5.40;4.90;;;18.20;99.90;;;;;;5082504;28;20055;-44
2021/10/20 11:59:37;;;;;;;8.63;5.53;;;18.20;99.90;;;;;;5086815;28;20023;-43
2021/10/20 12:02:03;;;;;;;6.13;5.18;;;18.20;99.90;;;;;;5087114;28;20105;-44
2021/10/20 12:04:30;;;;;;;5.95;5.35;;;18.20;99.90;;;;;;5087299;28;20024;-44
2021/10/20 12:06:59;;;;;;;5.50;5.00;;;18.20;99.90;;;;;;5088256;28;20028;-43
2021/10/20 12:09:26;;;;;;;5.10;4.60;;;18.20;99.90;;;;;;5085668;28;20532;-34
2021/10/20 12:11:53;;;;;;;4.75;4.35;;;18.20;99.90;;;;;;5087350;28;20024;-33
2021/10/20 12:14:21;;;;;;;5.20;4.70;;;18.20;99.90;;;;;;5086910;28;20030;-33
2021/10/20 12:16:48;;;;;;;5.45;4.95;;;18.20;99.90;;;;;;5087467;28;20028;-42
2021/10/20 12:19:15;;;;;;;5.35;4.85;;;18.20;99.90;;;;;;5085960;28;20020;-44
2021/10/20 12:21:42;;;;;;;4.70;4.30;;;18.20;99.90;;;;;;5088319;28;20492;-44
2021/10/20 12:24:09;;;;;;;6.00;4.72;;;18.20;99.90;;;;;;5086172;28;20065;-45
2021/10/20 12:26:37;;;;;;;5.25;4.75;;;18.20;99.90;;;;;;5087564;28;20112;-44
2021/10/20 12:29:08;;;;;;;5.30;4.75;;;18.30;99.90;;;;;;5087615;28;20089;-43
2021/10/20 12:31:35;;;;;;;5.90;4.53;;;18.20;99.90;;;;;;5067987;28;20031;-42
2021/10/20 12:34:01;;;;;;;4.97;4.47;;;18.20;99.90;;;;;;5081442;28;20552;-46
2021/10/20 12:36:28;;;;;;;5.68;5.18;;;18.30;99.90;;;;;;5083257;28;20044;-44
2021/10/20 12:38:56;;;;;;;6.20;5.22;;;18.30;99.90;;;;;;5083399;28;20464;-43
2021/10/20 12:41:25;;;;;;;7.32;5.32;;;18.40;99.90;;;;;;5085493;28;20032;-42
2021/10/20 12:43:53;;;;;;;6.32;4.82;;;18.40;99.90;;;;;;5086264;28;20025;-44
2021/10/20 12:46:20;;;;;;;7.68;5.68;;;18.40;99.90;;;;;;5085908;28;20063;-43
2021/10/20 12:48:46;;;;;;;5.82;5.28;;;18.30;99.90;;;;;;5086784;28;20028;-44